Time;durP1;ratioP1;P1;durP2;ratioP2;P2;SDS_P1;SDS_P2;PMS_P1;PMS_P2;Temp;Humidity;BMP_temperature;BMP_pressure;BME280_temperature;BME280_humidity;BME280_pressure;Samples;Min_cycle;Max_cycle;Signal;HPM_P1;HPM_P2
2021/01/11 00:01:00;;;;;;;;;;;19.30;57.00;;;;;;5033239;28;1424;-66
2021/01/11 00:03:26;;;;;;;;;;;19.20;57.00;;;;;;5051291;28;1839;-66
2021/01/11 00:05:51;;;;;;;;;;;19.30;57.00;;;;;;5053202;28;1106;-66
2021/01/11 00:08:17;;;;;;;;;;;19.30;57.00;;;;;;5052997;28;1247;-66
2021/01/11 00:10:42;;;;;;;;;;;19.30;57.00;;;;;;5052313;28;1285;-67
2021/01/11 00:13:07;;;;;;;;;;;19.30;57.10;;;;;;5053016;28;1365;-66
2021/01/11 00:15:33;;;;;;;;;;;19.20;57.10;;;;;;5053195;28;1339;-67
2021/01/11 00:17:58;;;;;;;;;;;19.20;57.10;;;;;;5053024;28;1890;-67
2021/01/11 00:20:24;;;;;;;;;;;19.20;57.10;;;;;;5053310;28;1250;-66
2021/01/11 00:22:49;;;;;;;;;;;19.20;57.10;;;;;;5052706;28;1343;-66
2021/01/11 00:25:15;;;;;;;;;;;19.20;57.10;;;;;;5052897;28;1253;-66
2021/01/11 00:27:41;;;;;;;;;;;19.20;57.10;;;;;;5034822;28;1317;-66
2021/01/11 00:30:07;;;;;;;;;;;19.20;57.10;;;;;;5052895;28;1280;-66
2021/01/11 00:32:33;;;;;;;;;;;19.20;57.10;;;;;;5034694;28;1256;-66
2021/01/11 00:34:58;;;;;;;;;;;19.20;57.20;;;;;;5034450;28;1387;-66
2021/01/11 00:37:23;;;;;;;;;;;19.20;57.20;;;;;;5052921;28;1890;-66
2021/01/11 00:39:49;;;;;;;;;;;19.20;57.20;;;;;;5053155;28;1261;-67
2021/01/11 00:42:15;;;;;;;;;;;19.20;57.20;;;;;;5052580;28;1032;-66
2021/01/11 00:44:40;;;;;;;;;;;19.20;57.20;;;;;;5052716;28;1314;-68
2021/01/11 00:47:06;;;;;;;;;;;19.20;57.20;;;;;;5052348;28;1235;-68
2021/01/11 00:49:31;;;;;;;;;;;19.20;57.20;;;;;;5052747;28;1361;-68
2021/01/11 00:51:57;;;;;;;;;;;19.20;57.20;;;;;;5034269;28;1311;-68
2021/01/11 00:54:23;;;;;;;;;;;19.20;57.20;;;;;;5052384;28;1288;-68
2021/01/11 00:56:48;;;;;;;;;;;19.20;57.20;;;;;;5052252;28;1969;-68
2021/01/11 00:59:13;;;;;;;;;;;19.20;57.20;;;;;;5034758;28;1288;-68
2021/01/11 01:01:49;;;;;;;;;;;19.20;57.20;;;;;;5051638;28;1247;-68
2021/01/11 01:04:14;;;;;;;;;;;19.20;57.20;;;;;;5051927;28;1395;-68
2021/01/11 01:06:40;;;;;;;;;;;19.20;57.20;;;;;;5052206;28;1255;-68
2021/01/11 01:09:05;;;;;;;;;;;19.20;57.30;;;;;;5052534;28;1307;-67
2021/01/11 01:11:30;;;;;;;;;;;19.10;57.20;;;;;;5052124;28;1311;-68
2021/01/11 01:13:56;;;;;;;;;;;19.10;57.20;;;;;;5051239;28;1283;-68
2021/01/11 01:16:25;;;;;;;;;;;19.10;57.20;;;;;;5051681;28;1256;-68
2021/01/11 01:18:50;;;;;;;;;;;19.10;57.30;;;;;;5052245;28;1902;-69
2021/01/11 01:21:16;;;;;;;;;;;19.10;57.30;;;;;;5051488;28;1352;-68
2021/01/11 01:23:41;;;;;;;;;;;19.10;57.30;;;;;;5052396;28;1362;-66
2021/01/11 01:26:07;;;;;;;;;;;19.10;57.30;;;;;;5050308;28;1404;-68
2021/01/11 01:28:32;;;;;;;;;;;19.10;57.30;;;;;;5050856;28;1249;-69
2021/01/11 01:30:58;;;;;;;;;;;19.10;57.30;;;;;;5052286;28;1312;-68
2021/01/11 01:33:23;;;;;;;;;;;19.10;57.30;;;;;;5051600;28;1380;-69
2021/01/11 01:35:49;;;;;;;;;;;19.10;57.30;;;;;;5053025;28;1310;-68
2021/01/11 01:38:14;;;;;;;;;;;19.10;57.30;;;;;;5052933;28;1961;-68
2021/01/11 01:40:45;;;;;;;;;;;19.10;57.30;;;;;;5052712;28;1290;-67
2021/01/11 01:43:10;;;;;;;;;;;19.10;57.30;;;;;;5052115;28;1290;-68
2021/01/11 01:45:36;;;;;;;;;;;19.10;57.40;;;;;;5052145;28;1328;-68
2021/01/11 01:48:01;;;;;;;;;;;19.10;57.30;;;;;;5052610;28;1299;-68
2021/01/11 01:50:27;;;;;;;;;;;19.10;57.30;;;;;;5032283;28;1339;-68
2021/01/11 01:52:52;;;;;;;;;;;19.10;57.40;;;;;;5041545;28;1286;-68
2021/01/11 01:55:18;;;;;;;;;;;19.10;57.30;;;;;;5034085;28;1366;-68
2021/01/11 01:57:43;;;;;;;;;;;19.10;57.30;;;;;;5052066;28;1914;-69
2021/01/11 02:00:12;;;;;;;;;;;19.10;57.40;;;;;;5052530;28;1311;-68
2021/01/11 02:02:38;;;;;;;;;;;19.10;57.40;;;;;;5051886;28;1376;-68
2021/01/11 02:05:05;;;;;;;;;;;19.10;57.40;;;;;;5052109;28;1314;-68
2021/01/11 02:07:32;;;;;;;;;;;19.00;57.30;;;;;;5034152;28;1362;-69
2021/01/11 02:10:02;;;;;;;;;;;19.10;57.40;;;;;;5034401;28;1341;-69
2021/01/11 02:12:31;;;;;;;;;;;19.10;57.40;;;;;;5034196;28;1179;-68
2021/01/11 02:15:02;;;;;;;;;;;19.00;57.40;;;;;;5051809;28;1347;-69
2021/01/11 02:17:40;;;;;;;;;;;19.00;57.40;;;;;;5034424;28;1906;-68
2021/01/11 02:20:12;;;;;;;;;;;19.10;57.40;;;;;;5034777;28;1399;-68
2021/01/11 02:22:41;;;;;;;;;;;19.00;57.40;;;;;;5033996;28;1343;-68
2021/01/11 02:25:29;;;;;;;;;;;19.00;57.40;;;;;;5051851;28;1286;-67
2021/01/11 02:27:56;;;;;;;;;;;19.00;57.40;;;;;;5045840;28;1292;-69
2021/01/11 02:30:25;;;;;;;;;;;19.00;57.40;;;;;;5034907;28;1293;-69
2021/01/11 02:33:03;;;;;;;;;;;19.00;57.40;;;;;;5034119;28;1358;-67
2021/01/11 02:35:28;;;;;;;;;;;19.00;57.40;;;;;;5055696;28;1314;-69
2021/01/11 02:37:54;;;;;;;;;;;19.00;57.40;;;;;;5038156;28;1972;-69
2021/01/11 02:40:19;;;;;;;;;;;19.00;57.40;;;;;;5038223;28;1380;-68
2021/01/11 02:42:45;;;;;;;;;;;19.00;57.40;;;;;;5055824;28;1386;-67
2021/01/11 02:45:10;;;;;;;;;;;19.00;57.40;;;;;;5055849;28;1287;-68
2021/01/11 02:47:49;;;;;;;;;;;19.00;57.40;;;;;;5055905;28;1358;-69
2021/01/11 02:50:15;;;;;;;;;;;19.00;57.50;;;;;;5055288;28;1467;-68
2021/01/11 02:52:42;;;;;;;;;;;19.00;57.40;;;;;;5025447;28;1384;-67
2021/01/11 02:55:11;;;;;;;;;;;19.00;57.40;;;;;;5037692;28;1321;-68
2021/01/11 02:57:56;;;;;;;;;;;19.00;57.40;;;;;;5037965;28;1981;-68
2021/01/11 03:00:22;;;;;;;;;;;19.00;57.40;;;;;;5037907;28;1259;-69
2021/01/11 03:02:47;;;;;;;;;;;19.00;57.40;;;;;;5038206;28;1258;-68
2021/01/11 03:05:13;;;;;;;;;;;19.00;57.40;;;;;;5037759;28;1311;-69
2021/01/11 03:07:39;;;;;;;;;;;19.00;57.40;;;;;;5037885;28;1099;-69
2021/01/11 03:10:05;;;;;;;;;;;19.00;57.40;;;;;;5037920;28;1284;-68
2021/01/11 03:12:31;;;;;;;;;;;19.00;57.50;;;;;;5055103;28;1318;-68
2021/01/11 03:14:56;;;;;;;;;;;19.00;57.50;;;;;;5054659;28;2070;-68
2021/01/11 03:17:22;;;;;;;;;;;19.00;58.00;;;;;;5037467;28;1975;-69
2021/01/11 03:19:47;;;;;;;;;;;19.00;57.50;;;;;;5055812;28;1286;-68
2021/01/11 03:22:13;;;;;;;;;;;19.00;57.50;;;;;;5055359;28;1263;-68
2021/01/11 03:24:40;;;;;;;;;;;19.00;57.50;;;;;;5055465;28;1323;-67
2021/01/11 03:27:05;;;;;;;;;;;19.00;57.50;;;;;;5037614;28;1257;-69
2021/01/11 03:29:31;;;;;;;;;;;19.00;57.50;;;;;;5055037;28;1051;-69
2021/01/11 03:31:56;;;;;;;;;;;19.00;57.50;;;;;;5037460;28;1303;-69
2021/01/11 03:34:22;;;;;;;;;;;19.00;57.50;;;;;;5054428;28;1365;-68
2021/01/11 03:36:47;;;;;;;;;;;19.00;57.50;;;;;;5054851;28;1898;-69
2021/01/11 03:39:13;;;;;;;;;;;18.90;57.50;;;;;;5054942;28;1251;-69
2021/01/11 03:41:39;;;;;;;;;;;19.00;57.50;;;;;;5055329;28;1358;-69
2021/01/11 03:44:05;;;;;;;;;;;18.90;57.50;;;;;;5035928;28;1392;-69
2021/01/11 03:46:30;;;;;;;;;;;19.00;57.60;;;;;;5054396;28;1314;-68
2021/01/11 03:48:56;;;;;;;;;;;19.00;57.50;;;;;;5053455;28;1348;-68
2021/01/11 03:51:21;;;;;;;;;;;18.90;57.50;;;;;;5054510;28;1169;-68
2021/01/11 03:53:47;;;;;;;;;;;18.90;57.50;;;;;;5054921;28;1270;-68
2021/01/11 03:56:12;;;;;;;;;;;19.00;57.60;;;;;;5037336;28;1390;-68
2021/01/11 03:58:38;;;;;;;;;;;18.90;57.50;;;;;;5054692;28;1961;-69
2021/01/11 04:01:03;;;;;;;;;;;18.90;57.50;;;;;;5054389;28;1290;-68
2021/01/11 04:03:29;;;;;;;;;;;18.90;57.50;;;;;;5054276;28;1255;-68
2021/01/11 04:05:54;;;;;;;;;;;18.90;57.60;;;;;;5054303;28;1274;-68
2021/01/11 04:08:20;;;;;;;;;;;18.90;57.60;;;;;;5036784;28;1289;-68
2021/01/11 04:10:45;;;;;;;;;;;18.90;57.50;;;;;;5054175;28;1349;-68
2021/01/11 04:13:11;;;;;;;;;;;18.90;57.50;;;;;;5054243;28;1311;-68
2021/01/11 04:15:36;;;;;;;;;;;18.90;57.50;;;;;;5054279;28;1350;-68
2021/01/11 04:18:02;;;;;;;;;;;18.90;57.50;;;;;;5054163;28;2009;-69
2021/01/11 04:20:28;;;;;;;;;;;18.90;57.50;;;;;;5036412;28;1271;-68
2021/01/11 04:22:53;;;;;;;;;;;19.00;57.50;;;;;;5054176;28;1346;-69
2021/01/11 04:25:19;;;;;;;;;;;19.00;57.50;;;;;;5053842;28;1334;-67
2021/01/11 04:27:44;;;;;;;;;;;19.00;57.40;;;;;;5053937;28;1388;-68
2021/01/11 04:30:10;;;;;;;;;;;19.00;57.40;;;;;;5054503;28;1327;-68
2021/01/11 04:32:36;;;;;;;;;;;19.00;57.40;;;;;;5054105;28;1297;-68
2021/01/11 04:35:02;;;;;;;;;;;19.00;57.40;;;;;;5053320;28;1286;-68
2021/01/11 04:37:27;;;;;;;;;;;19.00;57.30;;;;;;5053899;28;1957;-68
2021/01/11 04:39:53;;;;;;;;;;;19.00;57.30;;;;;;5053629;28;1338;-67
2021/01/11 04:42:19;;;;;;;;;;;19.10;57.20;;;;;;5053853;28;1330;-68
2021/01/11 04:44:45;;;;;;;;;;;19.10;57.10;;;;;;5035237;28;1295;-68
2021/01/11 04:47:11;;;;;;;;;;;19.10;57.00;;;;;;5053460;28;1200;-68
2021/01/11 04:49:37;;;;;;;;;;;19.20;57.00;;;;;;5053992;28;1259;-68
2021/01/11 04:52:02;;;;;;;;;;;19.20;57.00;;;;;;5035788;28;1198;-69
2021/01/11 04:54:28;;;;;;;;;;;19.20;56.80;;;;;;5035603;28;1359;-68
2021/01/11 04:56:53;;;;;;;;;;;19.20;56.80;;;;;;5034602;28;1961;-67
2021/01/11 04:59:19;;;;;;;;;;;19.20;56.70;;;;;;5035768;28;1346;-68
2021/01/11 05:01:48;;;;;;;;;;;19.30;56.70;;;;;;5035727;28;1295;-67
2021/01/11 05:04:13;;;;;;;;;;;19.30;56.70;;;;;;5053066;28;1283;-67
2021/01/11 05:06:39;;;;;;;;;;;19.30;56.70;;;;;;5052749;28;1365;-67
2021/01/11 05:09:07;;;;;;;;;;;19.30;56.60;;;;;;5035997;28;1636;-67
2021/01/11 05:11:33;;;;;;;;;;;19.30;57.20;;;;;;5053019;28;1032;-67
2021/01/11 05:13:59;;;;;;;;;;;19.30;56.60;;;;;;5052848;28;1294;-67
2021/01/11 05:16:24;;;;;;;;;;;19.30;56.60;;;;;;5052972;28;1296;-69
2021/01/11 05:18:51;;;;;;;;;;;19.30;56.60;;;;;;5035253;28;1902;-68
2021/01/11 05:21:35;;;;;;;;;;;19.30;56.60;;;;;;5035573;28;1303;-68
2021/01/11 05:24:01;;;;;;;;;;;19.30;56.60;;;;;;5052235;28;1271;-69
2021/01/11 05:26:26;;;;;;;;;;;19.30;56.60;;;;;;5052138;28;1376;-68
2021/01/11 05:28:52;;;;;;;;;;;19.30;56.50;;;;;;5035047;28;1474;-68
2021/01/11 05:31:17;;;;;;;;;;;19.30;56.50;;;;;;5053015;28;1464;-69
2021/01/11 05:33:51;;;;;;;;;;;19.40;56.60;;;;;;5052722;28;1402;-68
2021/01/11 05:36:17;;;;;;;;;;;19.30;56.60;;;;;;5052190;28;1415;-68
2021/01/11 05:38:45;;;;;;;;;;;19.30;56.50;;;;;;5034853;28;1902;-69
2021/01/11 05:41:17;;;;;;;;;;;19.40;56.60;;;;;;5052774;28;1515;-69
2021/01/11 05:43:46;;;;;;;;;;;19.30;56.50;;;;;;5034520;28;1275;-69
2021/01/11 05:46:24;;;;;;;;;;;19.30;56.60;;;;;;5052526;28;1301;-66
2021/01/11 05:49:00;;;;;;;;;;;19.30;56.60;;;;;;5052785;28;1344;-67
2021/01/11 05:51:25;;;;;;;;;;;19.40;56.60;;;;;;5024288;28;1220;-68
2021/01/11 05:53:51;;;;;;;;;;;19.30;56.60;;;;;;5049417;28;1347;-68
2021/01/11 05:56:17;;;;;;;;;;;19.30;56.60;;;;;;5051948;28;1299;-68
2021/01/11 05:58:42;;;;;;;;;;;19.30;56.60;;;;;;5052259;28;1967;-66
2021/01/11 06:01:07;;;;;;;;;;;19.30;57.20;;;;;;5034889;28;1362;-69
2021/01/11 06:03:33;;;;;;;;;;;19.30;56.60;;;;;;5052213;28;1283;-67
2021/01/11 06:05:58;;;;;;;;;;;19.30;56.60;;;;;;5052057;28;1209;-66
2021/01/11 06:08:24;;;;;;;;;;;19.30;56.60;;;;;;5051116;28;1103;-67
2021/01/11 06:10:50;;;;;;;;;;;19.30;56.60;;;;;;5052714;28;1307;-66
2021/01/11 06:13:16;;;;;;;;;;;19.30;56.60;;;;;;5034509;28;1304;-67
2021/01/11 06:15:42;;;;;;;;;;;19.30;56.60;;;;;;5052434;28;1330;-67
2021/01/11 06:18:08;;;;;;;;;;;19.30;56.60;;;;;;5051260;28;1905;-67
2021/01/11 06:20:34;;;;;;;;;;;19.30;56.60;;;;;;5052433;28;1252;-67
2021/01/11 06:23:00;;;;;;;;;;;19.30;56.60;;;;;;5034276;28;1276;-67
2021/01/11 06:25:28;;;;;;;;;;;19.30;56.60;;;;;;5052020;28;1287;-67
2021/01/11 06:28:01;;;;;;;;;;;19.30;56.60;;;;;;5051511;28;1183;-67
2021/01/11 06:30:32;;;;;;;;;;;19.30;56.60;;;;;;5052431;28;1270;-67
2021/01/11 06:33:04;;;;;;;;;;;19.30;56.60;;;;;;5051958;28;1388;-67
2021/01/11 06:35:30;;;;;;;;;;;19.30;56.60;;;;;;5051627;28;1509;-67
2021/01/11 06:38:05;;;;;;;;;;;19.30;56.60;;;;;;5051699;28;1902;-67
2021/01/11 06:40:30;;;;;;;;;;;19.30;56.70;;;;;;5052358;28;1334;-66
2021/01/11 06:42:59;;;;;;;;;;;19.30;56.60;;;;;;5034192;28;1299;-67
2021/01/11 06:45:34;;;;;;;;;;;19.30;56.70;;;;;;5052099;28;1327;-67
2021/01/11 06:48:02;;;;;;;;;;;19.30;56.70;;;;;;5033750;28;1327;-68
2021/01/11 06:50:27;;;;;;;;;;;19.30;56.70;;;;;;5051906;28;1525;-67
2021/01/11 06:52:52;;;;;;;;;;;19.30;56.70;;;;;;5034253;28;1282;-66
2021/01/11 06:55:18;;;;;;;;;;;19.30;56.70;;;;;;5033294;28;1347;-67
2021/01/11 06:57:47;;;;;;;;;;;19.30;56.70;;;;;;5033136;28;1977;-67
2021/01/11 07:00:13;;;;;;;;;;;19.30;56.70;;;;;;5052000;28;1348;-67
2021/01/11 07:02:42;;;;;;;;;;;19.30;56.70;;;;;;5034115;28;1386;-67
2021/01/11 07:05:13;;;;;;;;;;;19.30;56.70;;;;;;5033664;28;1380;-66
2021/01/11 07:07:38;;;;;;;;;;;19.30;56.70;;;;;;5034019;28;1363;-67
2021/01/11 07:10:04;;;;;;;;;;;19.30;56.70;;;;;;5033857;28;1292;-67
2021/01/11 07:12:30;;;;;;;;;;;19.30;56.70;;;;;;5051281;28;1331;-67
2021/01/11 07:14:59;;;;;;;;;;;19.30;56.70;;;;;;5033124;28;1312;-67
2021/01/11 07:17:51;;;;;;;;;;;19.30;56.70;;;;;;5051898;28;1898;-68
2021/01/11 07:20:36;;;;;;;;;;;19.30;56.70;;;;;;5050974;28;1222;-68
2021/01/11 07:23:02;;;;;;;;;;;19.30;56.70;;;;;;5054555;28;1417;-68
2021/01/11 07:25:27;;;;;;;;;;;19.30;56.70;;;;;;5055227;28;1283;-68
2021/01/11 07:27:56;;;;;;;;;;;19.30;56.70;;;;;;5055038;28;1370;-67
2021/01/11 07:30:21;;;;;;;;;;;19.20;56.70;;;;;;5055389;28;1279;-68
2021/01/11 07:32:47;;;;;;;;;;;19.30;56.70;;;;;;5037088;28;1336;-68
2021/01/11 07:35:12;;;;;;;;;;;19.30;56.70;;;;;;5055117;28;2002;-68
2021/01/11 07:37:38;;;;;;;;;;;19.30;56.70;;;;;;5054955;28;1955;-67
2021/01/11 07:40:07;;;;;;;;;;;19.30;56.70;;;;;;5054781;28;1275;-68
2021/01/11 07:42:32;;;;;;;;;;;19.30;56.70;;;;;;5055449;28;1271;-68
2021/01/11 07:45:03;;;;;;;;;;;19.30;56.70;;;;;;5054440;28;1268;-68
2021/01/11 07:47:29;;;;;;;;;;;19.20;56.70;;;;;;5036907;28;1383;-67
2021/01/11 07:49:54;;;;;;;;;;;19.20;56.70;;;;;;5054494;28;1420;-67
2021/01/11 07:52:25;;;;;;;;;;;19.30;56.80;;;;;;5041394;28;1174;-68
2021/01/11 07:55:00;;;;;;;;;;;19.30;56.70;;;;;;5054409;28;1405;-68
2021/01/11 07:57:29;;;;;;;;;;;19.30;56.80;;;;;;5054721;28;1922;-67
2021/01/11 07:59:58;;;;;;;;;;;19.30;56.70;;;;;;5042471;28;2350;-67
2021/01/11 08:02:24;;;;;;;;;;;19.20;56.70;;;;;;5042058;28;1369;-67
2021/01/11 08:04:49;;;;;;;;;;;19.30;56.70;;;;;;5036532;28;1384;-69
2021/01/11 08:07:15;;;;;;;;;;;19.30;56.80;;;;;;5053922;28;1394;-68
2021/01/11 08:09:41;;;;;;;;;;;19.30;56.70;;;;;;5037080;28;1385;-68
2021/01/11 08:12:07;;;;;;;;;;;19.20;56.70;;;;;;5054266;28;1326;-68
2021/01/11 08:14:32;;;;;;;;;;;19.30;56.80;;;;;;5053678;28;1342;-68
2021/01/11 08:16:58;;;;;;;;;;;19.20;56.70;;;;;;5053960;28;1898;-68
2021/01/11 08:19:23;;;;;;;;;;;19.20;56.70;;;;;;5020247;28;1325;-68
2021/01/11 08:21:55;;;;;;;;;;;19.20;56.70;;;;;;5054599;28;1308;-68
2021/01/11 08:24:20;;;;;;;;;;;19.20;56.70;;;;;;5053751;28;1330;-68
2021/01/11 08:26:47;;;;;;;;;;;19.20;56.70;;;;;;5054251;28;1078;-68
2021/01/11 08:29:13;;;;;;;;;;;19.20;56.70;;;;;;5053253;28;1188;-67
2021/01/11 08:31:38;;;;;;;;;;;19.30;56.70;;;;;;5035116;28;1267;-67
2021/01/11 08:34:05;;;;;;;;;;;19.30;56.70;;;;;;5053126;28;1291;-68
2021/01/11 08:36:30;;;;;;;;;;;19.20;56.70;;;;;;5054299;28;1467;-67
2021/01/11 08:39:06;;;;;;;;;;;19.20;56.70;;;;;;5054090;28;1961;-67
2021/01/11 08:41:32;;;;;;;;;;;19.20;56.70;;;;;;5053814;28;1266;-68
2021/01/11 08:43:58;;;;;;;;;;;19.30;56.80;;;;;;5052851;28;1310;-67
2021/01/11 08:46:23;;;;;;;;;;;19.20;56.70;;;;;;5053494;28;1188;-67
2021/01/11 08:48:49;;;;;;;;;;;19.30;56.70;;;;;;5053876;28;1063;-68
2021/01/11 08:51:24;;;;;;;;;;;19.20;56.70;;;;;;5053849;28;1170;-68
2021/01/11 08:53:49;;;;;;;;;;;19.20;56.70;;;;;;5052414;28;1391;-67
2021/01/11 08:56:17;;;;;;;;;;;19.20;56.70;;;;;;5053187;28;1263;-68
2021/01/11 08:58:46;;;;;;;;;;;19.20;56.70;;;;;;5035796;28;2112;-68
2021/01/11 09:01:12;;;;;;;;;;;19.20;56.70;;;;;;5053404;28;1374;-67
2021/01/11 09:03:41;;;;;;;;;;;19.20;56.70;;;;;;5051604;28;1341;-67
2021/01/11 09:06:07;;;;;;;;;;;19.20;56.70;;;;;;5035097;28;1273;-67
2021/01/11 09:08:32;;;;;;;;;;;19.20;56.70;;;;;;5053526;28;1339;-67
2021/01/11 09:10:58;;;;;;;;;;;19.20;56.70;;;;;;5052916;28;1357;-68
2021/01/11 09:13:25;;;;;;;;;;;19.20;56.70;;;;;;5051281;28;1329;-67
2021/01/11 09:15:51;;;;;;;;;;;19.20;56.70;;;;;;5048542;28;1300;-67
2021/01/11 09:18:17;;;;;;;;;;;19.20;56.70;;;;;;5052710;28;1906;-68
2021/01/11 09:20:43;;;;;;;;;;;19.20;56.70;;;;;;5035220;28;1388;-67
2021/01/11 09:23:08;;;;;;;;;;;19.30;56.70;;;;;;5053620;28;1360;-67
2021/01/11 09:25:34;;;;;;;;;;;19.20;56.70;;;;;;5052322;28;1295;-67
2021/01/11 09:28:00;;;;;;;;;;;19.20;56.70;;;;;;5034772;28;1304;-68
2021/01/11 09:30:26;;;;;;;;;;;19.20;56.80;;;;;;5034361;28;1216;-67
2021/01/11 09:32:51;;;;;;;;;;;19.20;56.70;;;;;;5052857;28;1357;-67
2021/01/11 09:35:17;;;;;;;;;;;19.20;56.70;;;;;;5052429;28;1279;-67
2021/01/11 09:37:43;;;;;;;;;;;19.20;56.70;;;;;;5052561;28;1902;-68
2021/01/11 09:40:08;;;;;;;;;;;19.20;56.70;;;;;;5052813;28;1428;-67
2021/01/11 09:42:34;;;;;;;;;;;19.20;56.70;;;;;;5052367;28;1247;-68
2021/01/11 09:44:59;;;;;;;;;;;19.20;56.70;;;;;;5034186;28;1265;-68
2021/01/11 09:47:25;;;;;;;;;;;19.20;56.70;;;;;;5046264;28;1311;-68
2021/01/11 09:49:50;;;;;;;;;;;19.20;56.70;;;;;;5018201;28;1300;-68
2021/01/11 09:52:16;;;;;;;;;;;19.20;56.70;;;;;;5042648;28;2044;-68
2021/01/11 09:54:41;;;;;;;;;;;19.20;56.70;;;;;;5050952;28;1230;-67
2021/01/11 09:57:10;;;;;;;;;;;19.20;56.80;;;;;;5032922;28;1977;-67
2021/01/11 09:59:38;;;;;;;;;;;19.20;56.80;;;;;;5051412;28;1235;-67
2021/01/11 10:02:03;;;;;;;;;;;19.20;56.80;;;;;;5051060;28;1255;-67
2021/01/11 10:04:29;;;;;;;;;;;19.20;56.80;;;;;;5050798;28;1311;-68
2021/01/11 10:06:55;;;;;;;;;;;19.20;56.80;;;;;;5050516;28;1248;-68
2021/01/11 10:09:25;;;;;;;;;;;19.20;56.60;;;;;;5033835;28;1153;-68
2021/01/11 10:12:00;;;;;;;;;;;19.30;56.60;;;;;;5033385;28;1171;-68
2021/01/11 10:14:26;;;;;;;;;;;19.30;56.50;;;;;;5032063;28;1306;-68
2021/01/11 10:16:51;;;;;;;;;;;19.40;56.40;;;;;;5032858;28;1262;-68
2021/01/11 10:19:17;;;;;;;;;;;19.50;56.20;;;;;;5033224;28;1875;-68
2021/01/11 10:21:43;;;;;;;;;;;19.60;56.00;;;;;;5051412;28;1306;-67
2021/01/11 10:24:08;;;;;;;;;;;19.70;55.80;;;;;;5050696;28;1380;-68
2021/01/11 10:26:34;;;;;;;;;;;19.80;55.60;;;;;;5050627;28;1059;-68
2021/01/11 10:28:59;;;;;;;;;;;19.90;55.40;;;;;;5032676;28;1255;-67
2021/01/11 10:31:25;;;;;;;;;;;20.00;55.30;;;;;;5033243;28;1274;-68
2021/01/11 10:33:50;;;;;;;;;;;20.00;55.10;;;;;;5050884;28;1343;-68
2021/01/11 10:36:16;;;;;;;;;;;20.00;55.00;;;;;;5050169;28;1286;-68
2021/01/11 10:38:42;;;;;;;;;;;20.10;54.90;;;;;;5051150;28;1890;-68
2021/01/11 10:41:08;;;;;;;;;;;20.20;54.70;;;;;;5050921;28;1282;-67
2021/01/11 10:43:33;;;;;;;;;;;20.20;54.60;;;;;;5050612;28;1321;-68
2021/01/11 10:45:59;;;;;;;;;;;20.30;54.40;;;;;;5050843;28;1279;-68
2021/01/11 10:48:25;;;;;;;;;;;20.40;54.40;;;;;;5033011;28;1287;-68
2021/01/11 10:50:51;;;;;;;;;;;20.50;54.20;;;;;;5050455;28;1310;-68
2021/01/11 10:53:17;;;;;;;;;;;20.50;54.00;;;;;;5033110;28;1373;-68
2021/01/11 10:55:42;;;;;;;;;;;20.60;53.90;;;;;;5054653;28;1380;-68
2021/01/11 10:58:07;;;;;;;;;;;20.60;53.70;;;;;;5054289;28;1973;-68
2021/01/11 11:00:33;;;;;;;;;;;20.70;53.60;;;;;;5054327;28;1376;-68
2021/01/11 11:02:58;;;;;;;;;;;20.70;53.60;;;;;;5054484;28;1338;-67
2021/01/11 11:05:24;;;;;;;;;;;20.70;53.50;;;;;;5053966;28;1265;-68
2021/01/11 11:07:50;;;;;;;;;;;20.80;53.50;;;;;;5054549;28;1259;-68
2021/01/11 11:10:15;;;;;;;;;;;20.80;53.40;;;;;;5054679;28;1241;-67
2021/01/11 11:12:42;;;;;;;;;;;20.80;53.40;;;;;;5054389;28;1262;-68
2021/01/11 11:15:08;;;;;;;;;;;20.80;53.30;;;;;;5054570;28;1247;-68
2021/01/11 11:17:33;;;;;;;;;;;20.80;53.30;;;;;;5036194;28;1943;-67
2021/01/11 11:19:59;;;;;;;;;;;20.90;53.20;;;;;;5048331;28;1903;-66
2021/01/11 11:22:24;;;;;;;;;;;20.90;53.20;;;;;;5032014;28;2052;-66
2021/01/11 11:24:50;;;;;;;;;;;20.90;53.10;;;;;;5053426;28;1266;-66
2021/01/11 11:27:16;;;;;;;;;;;21.00;53.10;;;;;;5047480;28;1816;-65
2021/01/11 11:29:41;;;;;;;;;;;21.00;53.10;;;;;;5036169;28;1174;-64
2021/01/11 11:32:07;;;;;;;;;;;21.00;53.00;;;;;;5045124;28;2124;-64
2021/01/11 11:34:32;;;;;;;;;;;21.10;53.00;;;;;;5022842;28;1990;-68
2021/01/11 11:36:58;;;;;;;;;;;21.10;52.90;;;;;;5049950;28;1165;-65
2021/01/11 11:39:23;;;;;;;;;;;21.10;52.80;;;;;;5035171;28;1914;-64
2021/01/11 11:41:49;;;;;;;;;;;21.10;52.80;;;;;;5053743;28;1571;-65
2021/01/11 11:44:14;;;;;;;;;;;21.20;52.80;;;;;;5051312;28;1546;-65
2021/01/11 11:46:40;;;;;;;;;;;21.20;52.70;;;;;;5035052;28;1582;-66
2021/01/11 11:49:05;;;;;;;;;;;21.20;52.60;;;;;;5051721;28;1941;-67
2021/01/11 11:51:31;;;;;;;;;;;21.20;52.60;;;;;;5034846;28;2351;-66
2021/01/11 11:53:56;;;;;;;;;;;21.30;52.60;;;;;;5046601;28;2047;-65
2021/01/11 11:56:22;;;;;;;;;;;21.30;52.50;;;;;;5035604;28;1272;-65
2021/01/11 11:58:48;;;;;;;;;;;21.30;52.50;;;;;;5053450;28;1902;-66
2021/01/11 12:01:13;;;;;;;;;;;21.30;52.50;;;;;;5053924;28;1329;-67
2021/01/11 12:03:39;;;;;;;;;;;21.30;52.40;;;;;;5052903;28;1353;-67
2021/01/11 12:06:04;;;;;;;;;;;21.30;52.40;;;;;;5052678;28;1088;-66
2021/01/11 12:08:30;;;;;;;;;;;21.40;52.40;;;;;;5050347;28;1242;-69
2021/01/11 12:10:55;;;;;;;;;;;21.40;52.30;;;;;;5048586;28;1245;-65
2021/01/11 12:13:21;;;;;;;;;;;21.30;52.30;;;;;;5045359;28;1474;-68
2021/01/11 12:15:46;;;;;;;;;;;21.40;52.30;;;;;;5042557;28;1180;-64
2021/01/11 12:18:12;;;;;;;;;;;21.40;52.30;;;;;;5039761;28;1907;-65
2021/01/11 12:20:37;;;;;;;;;;;21.30;52.30;;;;;;5048748;28;1245;-65
2021/01/11 12:23:03;;;;;;;;;;;21.30;52.30;;;;;;5048866;28;1285;-65
2021/01/11 12:25:29;;;;;;;;;;;21.30;52.30;;;;;;5047694;28;1261;-65
2021/01/11 12:27:55;;;;;;;;;;;21.30;52.30;;;;;;5047160;28;1317;-67
2021/01/11 12:30:21;;;;;;;;;;;21.30;52.40;;;;;;5052125;28;1248;-65
2021/01/11 12:32:46;;;;;;;;;;;21.30;52.40;;;;;;5049319;28;1371;-65
2021/01/11 12:35:12;;;;;;;;;;;21.30;52.50;;;;;;5045679;28;1265;-65
2021/01/11 12:37:38;;;;;;;;;;;21.30;52.50;;;;;;5049577;28;1953;-65
2021/01/11 12:40:04;;;;;;;;;;;21.20;52.50;;;;;;5050720;28;1287;-65
2021/01/11 12:42:29;;;;;;;;;;;21.20;52.50;;;;;;5051454;28;1287;-65
2021/01/11 12:44:55;;;;;;;;;;;21.20;52.60;;;;;;5051650;28;1340;-65
2021/01/11 12:47:20;;;;;;;;;;;21.20;52.70;;;;;;5052691;28;1274;-67
2021/01/11 12:49:48;;;;;;;;;;;21.10;53.20;;;;;;5051769;28;1322;-67
2021/01/11 12:52:13;;;;;;;;;;;21.10;52.70;;;;;;5050388;28;1659;-67
2021/01/11 12:54:39;;;;;;;;;;;21.10;52.80;;;;;;5033801;28;1463;-67
2021/01/11 12:57:04;;;;;;;;;;;21.10;52.80;;;;;;5051975;28;1114;-67
2021/01/11 12:59:30;;;;;;;;;;;21.00;52.80;;;;;;5052068;28;1973;-67
2021/01/11 13:01:57;;;;;;;;;;;21.00;52.80;;;;;;5051416;28;1336;-67
2021/01/11 13:04:23;;;;;;;;;;;21.00;52.90;;;;;;5051124;28;1303;-65
2021/01/11 13:06:48;;;;;;;;;;;21.00;53.00;;;;;;5034102;28;1525;-67
2021/01/11 13:09:14;;;;;;;;;;;21.00;53.00;;;;;;5052618;28;1072;-67
2021/01/11 13:11:41;;;;;;;;;;;20.90;53.00;;;;;;5052134;28;1321;-67
2021/01/11 13:14:06;;;;;;;;;;;20.90;53.00;;;;;;5052214;28;1203;-67
2021/01/11 13:16:33;;;;;;;;;;;20.90;53.10;;;;;;5034318;28;1250;-67
2021/01/11 13:18:59;;;;;;;;;;;20.90;53.10;;;;;;5052429;28;1902;-67
2021/01/11 13:21:25;;;;;;;;;;;20.80;53.10;;;;;;5043597;28;1879;-67
2021/01/11 13:23:51;;;;;;;;;;;20.80;53.20;;;;;;5030810;28;1429;-67
2021/01/11 13:26:29;;;;;;;;;;;20.80;53.20;;;;;;5029465;28;1168;-68
2021/01/11 13:28:55;;;;;;;;;;;20.80;53.30;;;;;;5050630;28;1039;-67
2021/01/11 13:31:21;;;;;;;;;;;20.80;53.30;;;;;;5033956;28;1282;-67
2021/01/11 13:33:47;;;;;;;;;;;20.80;53.40;;;;;;5051522;28;1276;-67
2021/01/11 13:36:18;;;;;;;;;;;20.70;53.40;;;;;;5051228;28;1263;-67
2021/01/11 13:38:43;;;;;;;;;;;20.70;53.40;;;;;;5048201;28;1963;-67
2021/01/11 13:41:09;;;;;;;;;;;20.70;53.40;;;;;;5051521;28;1266;-67
2021/01/11 13:43:34;;;;;;;;;;;20.70;53.50;;;;;;5051326;28;1222;-67
2021/01/11 13:46:00;;;;;;;;;;;20.70;53.60;;;;;;5051232;28;1390;-67
2021/01/11 13:48:25;;;;;;;;;;;20.70;54.20;;;;;;5051699;28;1287;-67
2021/01/11 13:50:51;;;;;;;;;;;20.60;53.50;;;;;;5051205;28;1282;-67
2021/01/11 13:53:16;;;;;;;;;;;20.60;53.60;;;;;;5051005;28;1307;-67
2021/01/11 13:55:42;;;;;;;;;;;20.60;53.60;;;;;;5051344;28;1406;-67
2021/01/11 13:58:07;;;;;;;;;;;20.60;53.60;;;;;;5051280;28;1969;-67
2021/01/11 14:00:32;;;;;;;;;;;20.60;53.70;;;;;;5051818;28;1255;-67
2021/01/11 14:02:58;;;;;;;;;;;20.50;53.60;;;;;;5050987;28;1188;-67
2021/01/11 14:05:23;;;;;;;;;;;20.50;53.70;;;;;;5050727;28;1301;-67
2021/01/11 14:07:49;;;;;;;;;;;20.50;53.70;;;;;;5051482;28;1322;-67
2021/01/11 14:10:15;;;;;;;;;;;20.50;53.70;;;;;;5033638;28;1251;-67
2021/01/11 14:12:40;;;;;;;;;;;20.50;53.70;;;;;;5033792;28;1329;-67
2021/01/11 14:15:06;;;;;;;;;;;20.50;53.70;;;;;;5050580;28;1278;-67
2021/01/11 14:17:32;;;;;;;;;;;20.50;53.80;;;;;;5050719;28;1902;-68
2021/01/11 14:19:57;;;;;;;;;;;20.40;53.80;;;;;;5051418;28;1271;-67
2021/01/11 14:22:23;;;;;;;;;;;20.40;53.80;;;;;;5051112;28;1310;-68
2021/01/11 14:24:48;;;;;;;;;;;20.40;53.90;;;;;;5050931;28;1275;-68
2021/01/11 14:27:14;;;;;;;;;;;20.40;54.00;;;;;;5051058;28;1240;-67